sensor_id;sensor_type;location;lat;lon;timestamp;P1;durP1;ratioP1;P2;durP2;ratioP2
2748;SDS011;1382;52.142;11.618;2023-03-05T00:01:22;5.80;;;1.50;;
2748;SDS011;1382;52.142;11.618;2023-03-05T00:03:51;4.37;;;2.03;;
2748;SDS011;1382;52.142;11.618;2023-03-05T00:06:19;3.47;;;1.30;;
2748;SDS011;1382;52.142;11.618;2023-03-05T00:08:47;6.20;;;1.67;;
2748;SDS011;1382;52.142;11.618;2023-03-05T00:11:15;11.07;;;1.63;;
2748;SDS011;1382;52.142;11.618;2023-03-05T00:13:42;3.97;;;1.30;;
2748;SDS011;1382;52.142;11.618;2023-03-05T00:16:10;6.77;;;1.77;;
2748;SDS011;1382;52.142;11.618;2023-03-05T00:18:39;3.73;;;1.40;;
2748;SDS011;1382;52.142;11.618;2023-03-05T00:21:13;6.63;;;2.53;;
2748;SDS011;1382;52.142;11.618;2023-03-05T00:23:43;2.50;;;1.63;;
2748;SDS011;1382;52.142;11.618;2023-03-05T00:26:10;9.40;;;1.73;;
2748;SDS011;1382;52.142;11.618;2023-03-05T00:28:40;3.43;;;1.10;;
2748;SDS011;1382;52.142;11.618;2023-03-05T00:31:06;2.23;;;0.87;;
2748;SDS011;1382;52.142;11.618;2023-03-05T00:33:33;4.27;;;1.10;;
2748;SDS011;1382;52.142;11.618;2023-03-05T00:36:03;2.83;;;1.20;;
2748;SDS011;1382;52.142;11.618;2023-03-05T00:38:31;1.63;;;1.07;;
2748;SDS011;1382;52.142;11.618;2023-03-05T00:40:58;9.60;;;1.07;;
2748;SDS011;1382;52.142;11.618;2023-03-05T00:43:25;8.93;;;1.67;;
2748;SDS011;1382;52.142;11.618;2023-03-05T00:45:54;8.10;;;1.77;;
2748;SDS011;1382;52.142;11.618;2023-03-05T00:48:20;5.37;;;2.00;;
2748;SDS011;1382;52.142;11.618;2023-03-05T00:50:48;6.33;;;1.93;;
2748;SDS011;1382;52.142;11.618;2023-03-05T00:53:15;2.60;;;1.20;;
2748;SDS011;1382;52.142;11.618;2023-03-05T00:55:42;5.97;;;1.10;;
2748;SDS011;1382;52.142;11.618;2023-03-05T00:58:09;4.63;;;1.90;;
2748;SDS011;1382;52.142;11.618;2023-03-05T01:00:36;4.63;;;1.60;;
2748;SDS011;1382;52.142;11.618;2023-03-05T01:03:04;8.33;;;1.73;;
2748;SDS011;1382;52.142;11.618;2023-03-05T01:05:31;3.00;;;1.03;;
2748;SDS011;1382;52.142;11.618;2023-03-05T01:07:58;5.50;;;1.50;;
2748;SDS011;1382;52.142;11.618;2023-03-05T01:10:24;5.70;;;1.67;;
2748;SDS011;1382;52.142;11.618;2023-03-05T01:12:54;5.77;;;1.00;;
2748;SDS011;1382;52.142;11.618;2023-03-05T01:15:23;5.37;;;1.37;;
2748;SDS011;1382;52.142;11.618;2023-03-05T01:17:50;3.40;;;1.20;;
2748;SDS011;1382;52.142;11.618;2023-03-05T01:20:20;14.50;;;2.10;;
2748;SDS011;1382;52.142;11.618;2023-03-05T01:22:47;5.40;;;1.97;;
2748;SDS011;1382;52.142;11.618;2023-03-05T01:25:15;5.60;;;2.10;;
2748;SDS011;1382;52.142;11.618;2023-03-05T01:27:42;10.00;;;2.87;;
2748;SDS011;1382;52.142;11.618;2023-03-05T01:30:10;6.70;;;1.50;;
2748;SDS011;1382;52.142;11.618;2023-03-05T01:32:38;4.50;;;1.80;;
2748;SDS011;1382;52.142;11.618;2023-03-05T01:35:05;5.40;;;1.37;;
2748;SDS011;1382;52.142;11.618;2023-03-05T01:37:35;7.60;;;2.10;;
2748;SDS011;1382;52.142;11.618;2023-03-05T01:40:01;9.17;;;2.43;;
2748;SDS011;1382;52.142;11.618;2023-03-05T01:42:29;5.57;;;2.00;;
2748;SDS011;1382;52.142;11.618;2023-03-05T01:44:59;5.23;;;1.80;;
2748;SDS011;1382;52.142;11.618;2023-03-05T01:47:28;9.10;;;2.30;;
2748;SDS011;1382;52.142;11.618;2023-03-05T01:49:55;7.53;;;1.97;;
2748;SDS011;1382;52.142;11.618;2023-03-05T01:52:22;7.37;;;2.30;;
2748;SDS011;1382;52.142;11.618;2023-03-05T01:54:53;7.93;;;2.87;;
2748;SDS011;1382;52.142;11.618;2023-03-05T01:57:25;6.80;;;2.53;;
2748;SDS011;1382;52.142;11.618;2023-03-05T01:59:54;9.00;;;2.67;;
2748;SDS011;1382;52.142;11.618;2023-03-05T02:02:24;7.57;;;2.87;;
2748;SDS011;1382;52.142;11.618;2023-03-05T02:04:53;9.17;;;2.67;;
2748;SDS011;1382;52.142;11.618;2023-03-05T02:07:22;4.50;;;2.10;;
2748;SDS011;1382;52.142;11.618;2023-03-05T02:09:50;6.60;;;3.87;;
2748;SDS011;1382;52.142;11.618;2023-03-05T02:12:18;7.37;;;2.97;;
2748;SDS011;1382;52.142;11.618;2023-03-05T02:14:46;7.93;;;2.80;;
2748;SDS011;1382;52.142;11.618;2023-03-05T02:17:16;11.70;;;3.40;;
2748;SDS011;1382;52.142;11.618;2023-03-05T02:19:48;5.20;;;3.37;;
2748;SDS011;1382;52.142;11.618;2023-03-05T02:22:17;5.10;;;2.70;;
2748;SDS011;1382;52.142;11.618;2023-03-05T02:24:46;5.57;;;3.33;;
2748;SDS011;1382;52.142;11.618;2023-03-05T02:27:13;10.97;;;3.23;;
2748;SDS011;1382;52.142;11.618;2023-03-05T02:29:41;6.07;;;2.40;;
2748;SDS011;1382;52.142;11.618;2023-03-05T02:32:11;7.17;;;3.40;;
2748;SDS011;1382;52.142;11.618;2023-03-05T02:34:38;8.73;;;3.20;;
2748;SDS011;1382;52.142;11.618;2023-03-05T02:37:05;10.67;;;3.40;;
2748;SDS011;1382;52.142;11.618;2023-03-05T02:39:34;16.10;;;3.70;;
2748;SDS011;1382;52.142;11.618;2023-03-05T02:42:01;8.97;;;3.77;;
2748;SDS011;1382;52.142;11.618;2023-03-05T02:44:27;6.20;;;3.80;;
2748;SDS011;1382;52.142;11.618;2023-03-05T02:46:54;7.77;;;3.20;;
2748;SDS011;1382;52.142;11.618;2023-03-05T02:49:21;11.13;;;2.70;;
2748;SDS011;1382;52.142;11.618;2023-03-05T02:51:48;7.77;;;3.60;;
2748;SDS011;1382;52.142;11.618;2023-03-05T02:54:14;7.70;;;3.47;;
2748;SDS011;1382;52.142;11.618;2023-03-05T02:56:42;6.67;;;3.23;;
2748;SDS011;1382;52.142;11.618;2023-03-05T02:59:09;16.17;;;3.60;;
2748;SDS011;1382;52.142;11.618;2023-03-05T03:01:36;8.00;;;3.33;;
2748;SDS011;1382;52.142;11.618;2023-03-05T03:04:04;9.03;;;3.37;;
2748;SDS011;1382;52.142;11.618;2023-03-05T03:06:30;5.10;;;2.97;;
2748;SDS011;1382;52.142;11.618;2023-03-05T03:08:57;8.90;;;2.87;;
2748;SDS011;1382;52.142;11.618;2023-03-05T03:11:24;7.80;;;3.13;;
2748;SDS011;1382;52.142;11.618;2023-03-05T03:13:52;2.97;;;2.43;;
2748;SDS011;1382;52.142;11.618;2023-03-05T03:16:19;4.57;;;2.90;;
2748;SDS011;1382;52.142;11.618;2023-03-05T03:18:46;7.77;;;4.03;;
2748;SDS011;1382;52.142;11.618;2023-03-05T03:21:17;5.33;;;2.80;;
2748;SDS011;1382;52.142;11.618;2023-03-05T03:23:45;7.03;;;3.33;;
2748;SDS011;1382;52.142;11.618;2023-03-05T03:26:12;6.57;;;2.93;;
2748;SDS011;1382;52.142;11.618;2023-03-05T03:28:39;10.07;;;2.67;;
2748;SDS011;1382;52.142;11.618;2023-03-05T03:31:07;7.73;;;2.70;;
2748;SDS011;1382;52.142;11.618;2023-03-05T03:33:34;7.13;;;2.30;;
2748;SDS011;1382;52.142;11.618;2023-03-05T03:36:02;9.20;;;2.67;;
2748;SDS011;1382;52.142;11.618;2023-03-05T03:38:30;11.03;;;3.47;;
2748;SDS011;1382;52.142;11.618;2023-03-05T03:40:57;6.30;;;2.60;;
2748;SDS011;1382;52.142;11.618;2023-03-05T03:43:23;6.30;;;2.00;;
2748;SDS011;1382;52.142;11.618;2023-03-05T03:45:50;5.80;;;2.97;;
2748;SDS011;1382;52.142;11.618;2023-03-05T03:48:18;6.73;;;2.93;;
2748;SDS011;1382;52.142;11.618;2023-03-05T03:50:45;5.47;;;2.70;;
2748;SDS011;1382;52.142;11.618;2023-03-05T03:53:12;11.90;;;3.40;;
2748;SDS011;1382;52.142;11.618;2023-03-05T03:55:39;5.97;;;2.60;;
2748;SDS011;1382;52.142;11.618;2023-03-05T03:58:06;9.13;;;4.07;;
2748;SDS011;1382;52.142;11.618;2023-03-05T04:00:33;6.80;;;3.60;;
2748;SDS011;1382;52.142;11.618;2023-03-05T04:03:00;6.80;;;3.80;;
2748;SDS011;1382;52.142;11.618;2023-03-05T04:05:29;9.10;;;4.43;;
2748;SDS011;1382;52.142;11.618;2023-03-05T04:07:55;7.13;;;4.40;;
2748;SDS011;1382;52.142;11.618;2023-03-05T04:10:22;10.77;;;4.30;;
2748;SDS011;1382;52.142;11.618;2023-03-05T04:12:49;11.63;;;4.30;;
2748;SDS011;1382;52.142;11.618;2023-03-05T04:15:19;7.80;;;4.37;;
2748;SDS011;1382;52.142;11.618;2023-03-05T04:17:46;7.50;;;4.47;;
2748;SDS011;1382;52.142;11.618;2023-03-05T04:20:12;10.17;;;4.83;;
2748;SDS011;1382;52.142;11.618;2023-03-05T04:22:40;14.67;;;6.40;;
2748;SDS011;1382;52.142;11.618;2023-03-05T04:25:07;7.83;;;5.07;;
2748;SDS011;1382;52.142;11.618;2023-03-05T04:27:34;8.87;;;6.10;;
2748;SDS011;1382;52.142;11.618;2023-03-05T04:30:01;15.80;;;5.93;;
2748;SDS011;1382;52.142;11.618;2023-03-05T04:32:29;11.63;;;6.33;;
2748;SDS011;1382;52.142;11.618;2023-03-05T04:34:56;10.20;;;5.67;;
2748;SDS011;1382;52.142;11.618;2023-03-05T04:37:22;9.10;;;4.30;;
2748;SDS011;1382;52.142;11.618;2023-03-05T04:39:51;10.97;;;6.40;;
2748;SDS011;1382;52.142;11.618;2023-03-05T04:42:18;14.40;;;5.17;;
2748;SDS011;1382;52.142;11.618;2023-03-05T04:44:45;10.03;;;4.10;;
2748;SDS011;1382;52.142;11.618;2023-03-05T04:47:12;9.10;;;4.50;;
2748;SDS011;1382;52.142;11.618;2023-03-05T04:49:39;10.17;;;5.10;;
2748;SDS011;1382;52.142;11.618;2023-03-05T04:52:05;8.43;;;4.30;;
2748;SDS011;1382;52.142;11.618;2023-03-05T04:54:32;7.43;;;4.67;;
2748;SDS011;1382;52.142;11.618;2023-03-05T04:57:03;8.80;;;4.87;;
2748;SDS011;1382;52.142;11.618;2023-03-05T04:59:31;10.20;;;4.50;;
2748;SDS011;1382;52.142;11.618;2023-03-05T05:01:58;8.30;;;5.07;;
2748;SDS011;1382;52.142;11.618;2023-03-05T05:04:25;11.37;;;4.60;;
2748;SDS011;1382;52.142;11.618;2023-03-05T05:06:53;12.87;;;5.77;;
2748;SDS011;1382;52.142;11.618;2023-03-05T05:09:20;8.27;;;4.20;;
2748;SDS011;1382;52.142;11.618;2023-03-05T05:11:47;10.87;;;4.83;;
2748;SDS011;1382;52.142;11.618;2023-03-05T05:14:15;10.60;;;4.70;;
2748;SDS011;1382;52.142;11.618;2023-03-05T05:16:45;11.40;;;4.30;;
2748;SDS011;1382;52.142;11.618;2023-03-05T05:19:12;10.60;;;4.20;;
2748;SDS011;1382;52.142;11.618;2023-03-05T05:21:38;7.10;;;4.00;;
2748;SDS011;1382;52.142;11.618;2023-03-05T05:24:05;8.57;;;4.87;;
2748;SDS011;1382;52.142;11.618;2023-03-05T05:26:33;6.23;;;3.57;;
2748;SDS011;1382;52.142;11.618;2023-03-05T05:29:00;8.13;;;3.73;;
2748;SDS011;1382;52.142;11.618;2023-03-05T05:31:29;5.80;;;4.57;;
2748;SDS011;1382;52.142;11.618;2023-03-05T05:33:59;7.67;;;4.20;;
2748;SDS011;1382;52.142;11.618;2023-03-05T05:36:26;10.33;;;3.43;;
2748;SDS011;1382;52.142;11.618;2023-03-05T05:38:52;11.03;;;4.40;;
2748;SDS011;1382;52.142;11.618;2023-03-05T05:41:19;8.10;;;4.60;;
2748;SDS011;1382;52.142;11.618;2023-03-05T05:43:47;6.80;;;3.80;;
2748;SDS011;1382;52.142;11.618;2023-03-05T05:46:14;12.00;;;4.07;;
2748;SDS011;1382;52.142;11.618;2023-03-05T05:48:44;9.67;;;4.00;;
2748;SDS011;1382;52.142;11.618;2023-03-05T05:51:16;10.00;;;3.77;;
2748;SDS011;1382;52.142;11.618;2023-03-05T05:53:44;4.80;;;2.80;;
2748;SDS011;1382;52.142;11.618;2023-03-05T05:56:13;7.30;;;4.50;;
2748;SDS011;1382;52.142;11.618;2023-03-05T05:58:41;5.07;;;3.10;;
2748;SDS011;1382;52.142;11.618;2023-03-05T06:01:12;3.90;;;2.80;;
2748;SDS011;1382;52.142;11.618;2023-03-05T06:03:41;8.17;;;3.03;;
2748;SDS011;1382;52.142;11.618;2023-03-05T06:06:10;4.70;;;2.60;;
2748;SDS011;1382;52.142;11.618;2023-03-05T06:08:38;6.27;;;2.70;;
2748;SDS011;1382;52.142;11.618;2023-03-05T06:11:05;9.47;;;2.40;;
2748;SDS011;1382;52.142;11.618;2023-03-05T06:13:32;5.93;;;2.10;;
2748;SDS011;1382;52.142;11.618;2023-03-05T06:16:00;3.70;;;1.57;;
2748;SDS011;1382;52.142;11.618;2023-03-05T06:18:29;4.17;;;2.50;;
2748;SDS011;1382;52.142;11.618;2023-03-05T06:20:57;4.40;;;2.00;;
2748;SDS011;1382;52.142;11.618;2023-03-05T06:23:26;9.90;;;2.37;;
2748;SDS011;1382;52.142;11.618;2023-03-05T06:25:53;3.90;;;2.03;;
2748;SDS011;1382;52.142;11.618;2023-03-05T06:28:20;6.17;;;2.33;;
2748;SDS011;1382;52.142;11.618;2023-03-05T06:30:47;4.67;;;2.53;;
2748;SDS011;1382;52.142;11.618;2023-03-05T06:33:14;6.10;;;3.10;;
2748;SDS011;1382;52.142;11.618;2023-03-05T06:35:41;10.83;;;3.30;;
2748;SDS011;1382;52.142;11.618;2023-03-05T06:38:08;6.30;;;2.73;;
2748;SDS011;1382;52.142;11.618;2023-03-05T06:40:37;5.83;;;2.47;;
2748;SDS011;1382;52.142;11.618;2023-03-05T06:43:04;4.63;;;2.63;;
2748;SDS011;1382;52.142;11.618;2023-03-05T06:45:30;9.27;;;3.07;;
2748;SDS011;1382;52.142;11.618;2023-03-05T06:47:57;4.07;;;2.40;;
2748;SDS011;1382;52.142;11.618;2023-03-05T06:50:24;15.43;;;2.37;;
2748;SDS011;1382;52.142;11.618;2023-03-05T06:52:51;6.07;;;2.60;;
2748;SDS011;1382;52.142;11.618;2023-03-05T06:55:18;5.87;;;3.17;;
2748;SDS011;1382;52.142;11.618;2023-03-05T06:57:46;7.13;;;3.27;;
2748;SDS011;1382;52.142;11.618;2023-03-05T07:00:13;5.43;;;2.90;;
2748;SDS011;1382;52.142;11.618;2023-03-05T07:02:40;7.90;;;3.67;;
2748;SDS011;1382;52.142;11.618;2023-03-05T07:05:07;7.70;;;2.83;;
2748;SDS011;1382;52.142;11.618;2023-03-05T07:07:34;3.83;;;3.00;;
2748;SDS011;1382;52.142;11.618;2023-03-05T07:10:01;5.60;;;3.10;;
2748;SDS011;1382;52.142;11.618;2023-03-05T07:12:28;5.20;;;3.30;;
2748;SDS011;1382;52.142;11.618;2023-03-05T07:14:56;6.13;;;2.70;;
2748;SDS011;1382;52.142;11.618;2023-03-05T07:17:23;6.03;;;2.30;;
2748;SDS011;1382;52.142;11.618;2023-03-05T07:19:50;8.87;;;3.33;;
2748;SDS011;1382;52.142;11.618;2023-03-05T07:22:17;5.60;;;3.97;;
2748;SDS011;1382;52.142;11.618;2023-03-05T07:24:43;5.97;;;2.73;;
2748;SDS011;1382;52.142;11.618;2023-03-05T07:27:10;5.97;;;3.30;;
2748;SDS011;1382;52.142;11.618;2023-03-05T07:29:37;5.73;;;2.10;;
2748;SDS011;1382;52.142;11.618;2023-03-05T07:32:06;7.90;;;3.00;;
2748;SDS011;1382;52.142;11.618;2023-03-05T07:34:33;10.53;;;3.53;;
2748;SDS011;1382;52.142;11.618;2023-03-05T07:37:02;4.90;;;2.70;;
2748;SDS011;1382;52.142;11.618;2023-03-05T07:39:28;5.10;;;2.60;;
2748;SDS011;1382;52.142;11.618;2023-03-05T07:41:55;9.40;;;2.80;;
2748;SDS011;1382;52.142;11.618;2023-03-05T07:44:22;7.30;;;3.17;;
2748;SDS011;1382;52.142;11.618;2023-03-05T07:46:52;11.07;;;4.00;;
2748;SDS011;1382;52.142;11.618;2023-03-05T07:49:20;6.00;;;2.83;;
2748;SDS011;1382;52.142;11.618;2023-03-05T07:51:47;5.23;;;3.33;;
2748;SDS011;1382;52.142;11.618;2023-03-05T07:54:13;7.10;;;3.50;;
2748;SDS011;1382;52.142;11.618;2023-03-05T07:56:40;4.83;;;2.90;;
2748;SDS011;1382;52.142;11.618;2023-03-05T07:59:09;5.97;;;3.40;;
2748;SDS011;1382;52.142;11.618;2023-03-05T08:01:37;4.03;;;2.10;;
2748;SDS011;1382;52.142;11.618;2023-03-05T08:04:05;3.77;;;2.10;;
2748;SDS011;1382;52.142;11.618;2023-03-05T08:06:33;4.83;;;2.43;;
2748;SDS011;1382;52.142;11.618;2023-03-05T08:09:00;7.23;;;3.13;;
2748;SDS011;1382;52.142;11.618;2023-03-05T08:11:27;5.27;;;3.03;;
2748;SDS011;1382;52.142;11.618;2023-03-05T08:13:54;10.47;;;3.20;;
2748;SDS011;1382;52.142;11.618;2023-03-05T08:16:21;6.37;;;3.00;;
2748;SDS011;1382;52.142;11.618;2023-03-05T08:18:48;4.53;;;2.67;;
2748;SDS011;1382;52.142;11.618;2023-03-05T08:21:16;4.30;;;2.70;;
2748;SDS011;1382;52.142;11.618;2023-03-05T08:23:45;3.77;;;1.87;;
2748;SDS011;1382;52.142;11.618;2023-03-05T08:26:12;5.40;;;3.20;;
2748;SDS011;1382;52.142;11.618;2023-03-05T08:28:41;5.10;;;3.30;;
2748;SDS011;1382;52.142;11.618;2023-03-05T08:31:08;9.40;;;3.47;;
2748;SDS011;1382;52.142;11.618;2023-03-05T08:33:35;5.30;;;2.73;;
2748;SDS011;1382;52.142;11.618;2023-03-05T08:36:03;6.43;;;2.70;;
2748;SDS011;1382;52.142;11.618;2023-03-05T08:38:30;4.10;;;3.10;;
2748;SDS011;1382;52.142;11.618;2023-03-05T08:40:58;6.67;;;3.03;;
2748;SDS011;1382;52.142;11.618;2023-03-05T08:43:25;4.90;;;3.10;;
2748;SDS011;1382;52.142;11.618;2023-03-05T08:45:52;9.30;;;2.90;;
2748;SDS011;1382;52.142;11.618;2023-03-05T08:48:19;3.60;;;2.90;;
2748;SDS011;1382;52.142;11.618;2023-03-05T08:50:45;8.53;;;3.60;;
2748;SDS011;1382;52.142;11.618;2023-03-05T08:53:12;6.40;;;3.80;;
2748;SDS011;1382;52.142;11.618;2023-03-05T08:55:39;5.43;;;3.03;;
2748;SDS011;1382;52.142;11.618;2023-03-05T08:58:10;5.07;;;3.00;;
2748;SDS011;1382;52.142;11.618;2023-03-05T09:00:37;10.37;;;3.90;;
2748;SDS011;1382;52.142;11.618;2023-03-05T09:03:04;5.27;;;2.80;;
2748;SDS011;1382;52.142;11.618;2023-03-05T09:05:30;7.47;;;4.07;;
2748;SDS011;1382;52.142;11.618;2023-03-05T09:07:57;7.57;;;3.60;;
2748;SDS011;1382;52.142;11.618;2023-03-05T09:10:24;6.73;;;3.47;;
2748;SDS011;1382;52.142;11.618;2023-03-05T09:12:51;4.27;;;3.40;;
2748;SDS011;1382;52.142;11.618;2023-03-05T09:15:19;7.30;;;4.23;;
2748;SDS011;1382;52.142;11.618;2023-03-05T09:17:46;8.27;;;3.40;;
2748;SDS011;1382;52.142;11.618;2023-03-05T09:20:13;4.47;;;3.73;;
2748;SDS011;1382;52.142;11.618;2023-03-05T09:22:40;5.33;;;2.87;;
2748;SDS011;1382;52.142;11.618;2023-03-05T09:25:08;7.47;;;3.27;;
2748;SDS011;1382;52.142;11.618;2023-03-05T09:27:37;3.47;;;2.97;;
2748;SDS011;1382;52.142;11.618;2023-03-05T09:30:04;3.17;;;2.50;;
2748;SDS011;1382;52.142;11.618;2023-03-05T09:32:34;5.30;;;3.97;;
2748;SDS011;1382;52.142;11.618;2023-03-05T09:35:01;2.97;;;2.30;;
2748;SDS011;1382;52.142;11.618;2023-03-05T09:37:27;3.77;;;2.37;;
2748;SDS011;1382;52.142;11.618;2023-03-05T09:39:55;5.80;;;1.87;;
2748;SDS011;1382;52.142;11.618;2023-03-05T09:42:40;2.80;;;1.93;;
2748;SDS011;1382;52.142;11.618;2023-03-05T09:45:17;2.97;;;1.90;;
2748;SDS011;1382;52.142;11.618;2023-03-05T09:47:52;3.73;;;1.80;;
2748;SDS011;1382;52.142;11.618;2023-03-05T09:50:28;4.70;;;1.43;;
2748;SDS011;1382;52.142;11.618;2023-03-05T09:53:01;1.67;;;1.10;;
2748;SDS011;1382;52.142;11.618;2023-03-05T09:55:33;2.10;;;1.10;;
2748;SDS011;1382;52.142;11.618;2023-03-05T09:58:03;2.73;;;1.10;;
2748;SDS011;1382;52.142;11.618;2023-03-05T10:00:37;2.60;;;1.30;;
2748;SDS011;1382;52.142;11.618;2023-03-05T10:03:11;4.07;;;1.23;;
2748;SDS011;1382;52.142;11.618;2023-03-05T10:05:49;3.17;;;1.07;;
2748;SDS011;1382;52.142;11.618;2023-03-05T10:08:23;1.80;;;1.50;;
2748;SDS011;1382;52.142;11.618;2023-03-05T10:10:56;3.90;;;1.60;;
2748;SDS011;1382;52.142;11.618;2023-03-05T10:13:29;1.67;;;1.40;;
2748;SDS011;1382;52.142;11.618;2023-03-05T10:16:02;1.57;;;1.43;;
2748;SDS011;1382;52.142;11.618;2023-03-05T10:18:45;2.60;;;1.90;;
2748;SDS011;1382;52.142;11.618;2023-03-05T10:21:17;2.47;;;1.63;;
2748;SDS011;1382;52.142;11.618;2023-03-05T10:23:57;4.00;;;2.00;;
2748;SDS011;1382;52.142;11.618;2023-03-05T10:26:34;1.30;;;1.07;;
2748;SDS011;1382;52.142;11.618;2023-03-05T10:29:15;2.20;;;1.17;;
2748;SDS011;1382;52.142;11.618;2023-03-05T10:31:53;4.70;;;2.10;;
2748;SDS011;1382;52.142;11.618;2023-03-05T10:37:34;2.80;;;2.10;;
2748;SDS011;1382;52.142;11.618;2023-03-05T10:40:13;3.60;;;2.40;;
2748;SDS011;1382;52.142;11.618;2023-03-05T10:42:51;2.10;;;1.90;;
2748;SDS011;1382;52.142;11.618;2023-03-05T10:45:25;6.20;;;2.57;;
2748;SDS011;1382;52.142;11.618;2023-03-05T10:47:56;5.17;;;3.00;;
2748;SDS011;1382;52.142;11.618;2023-03-05T10:50:32;4.77;;;1.90;;
2748;SDS011;1382;52.142;11.618;2023-03-05T10:53:05;1.73;;;1.33;;
2748;SDS011;1382;52.142;11.618;2023-03-05T10:55:40;1.83;;;1.30;;
2748;SDS011;1382;52.142;11.618;2023-03-05T10:58:10;3.03;;;1.93;;
2748;SDS011;1382;52.142;11.618;2023-03-05T11:00:38;6.03;;;2.10;;
2748;SDS011;1382;52.142;11.618;2023-03-05T11:03:06;3.83;;;1.87;;
2748;SDS011;1382;52.142;11.618;2023-03-05T11:05:46;2.43;;;1.67;;
2748;SDS011;1382;52.142;11.618;2023-03-05T11:08:24;2.77;;;1.80;;
2748;SDS011;1382;52.142;11.618;2023-03-05T11:11:01;2.37;;;1.40;;
2748;SDS011;1382;52.142;11.618;2023-03-05T11:13:37;5.27;;;1.67;;
2748;SDS011;1382;52.142;11.618;2023-03-05T11:16:15;5.00;;;2.03;;
2748;SDS011;1382;52.142;11.618;2023-03-05T11:18:46;3.13;;;1.90;;
2748;SDS011;1382;52.142;11.618;2023-03-05T11:21:18;3.63;;;2.20;;
2748;SDS011;1382;52.142;11.618;2023-03-05T11:24:02;3.13;;;2.00;;
2748;SDS011;1382;52.142;11.618;2023-03-05T11:26:29;2.30;;;1.40;;
2748;SDS011;1382;52.142;11.618;2023-03-05T11:28:57;3.87;;;2.57;;
2748;SDS011;1382;52.142;11.618;2023-03-05T11:31:27;3.03;;;2.37;;
2748;SDS011;1382;52.142;11.618;2023-03-05T11:33:56;2.20;;;1.73;;
2748;SDS011;1382;52.142;11.618;2023-03-05T11:36:27;3.07;;;2.23;;
2748;SDS011;1382;52.142;11.618;2023-03-05T11:38:56;4.67;;;2.27;;
2748;SDS011;1382;52.142;11.618;2023-03-05T11:41:32;4.70;;;2.47;;
2748;SDS011;1382;52.142;11.618;2023-03-05T11:44:01;2.90;;;2.37;;
2748;SDS011;1382;52.142;11.618;2023-03-05T11:46:34;5.40;;;3.10;;
2748;SDS011;1382;52.142;11.618;2023-03-05T11:49:06;3.27;;;1.73;;
2748;SDS011;1382;52.142;11.618;2023-03-05T11:51:42;5.43;;;2.80;;
2748;SDS011;1382;52.142;11.618;2023-03-05T11:54:11;2.90;;;1.70;;
2748;SDS011;1382;52.142;11.618;2023-03-05T11:56:41;4.83;;;2.50;;
2748;SDS011;1382;52.142;11.618;2023-03-05T11:59:11;3.47;;;1.73;;
2748;SDS011;1382;52.142;11.618;2023-03-05T12:01:42;2.70;;;2.50;;
2748;SDS011;1382;52.142;11.618;2023-03-05T12:04:11;2.37;;;1.97;;
2748;SDS011;1382;52.142;11.618;2023-03-05T12:06:38;2.37;;;1.97;;
2748;SDS011;1382;52.142;11.618;2023-03-05T12:09:12;10.23;;;2.40;;
2748;SDS011;1382;52.142;11.618;2023-03-05T12:11:46;2.73;;;1.90;;
2748;SDS011;1382;52.142;11.618;2023-03-05T12:14:16;2.20;;;2.00;;
2748;SDS011;1382;52.142;11.618;2023-03-05T12:16:50;2.43;;;2.23;;
2748;SDS011;1382;52.142;11.618;2023-03-05T12:19:27;2.40;;;2.10;;
2748;SDS011;1382;52.142;11.618;2023-03-05T12:22:12;2.77;;;2.10;;
2748;SDS011;1382;52.142;11.618;2023-03-05T12:24:42;2.50;;;1.93;;
2748;SDS011;1382;52.142;11.618;2023-03-05T12:27:13;6.13;;;2.10;;
2748;SDS011;1382;52.142;11.618;2023-03-05T12:29:45;1.70;;;1.60;;
2748;SDS011;1382;52.142;11.618;2023-03-05T12:35:23;3.93;;;1.70;;
2748;SDS011;1382;52.142;11.618;2023-03-05T12:37:57;2.70;;;1.90;;
2748;SDS011;1382;52.142;11.618;2023-03-05T12:40:28;5.27;;;2.50;;
2748;SDS011;1382;52.142;11.618;2023-03-05T12:42:56;1.40;;;1.30;;
2748;SDS011;1382;52.142;11.618;2023-03-05T12:45:29;7.63;;;1.43;;
2748;SDS011;1382;52.142;11.618;2023-03-05T12:51:10;3.40;;;1.40;;
2748;SDS011;1382;52.142;11.618;2023-03-05T12:53:39;5.40;;;1.67;;
2748;SDS011;1382;52.142;11.618;2023-03-05T12:56:12;2.33;;;1.37;;
2748;SDS011;1382;52.142;11.618;2023-03-05T12:58:43;2.30;;;1.10;;
2748;SDS011;1382;52.142;11.618;2023-03-05T13:01:18;1.70;;;1.33;;
2748;SDS011;1382;52.142;11.618;2023-03-05T13:03:59;4.93;;;0.97;;
2748;SDS011;1382;52.142;11.618;2023-03-05T13:06:29;1.20;;;0.80;;
2748;SDS011;1382;52.142;11.618;2023-03-05T13:08:59;1.60;;;1.10;;
2748;SDS011;1382;52.142;11.618;2023-03-05T13:11:29;4.17;;;1.00;;
2748;SDS011;1382;52.142;11.618;2023-03-05T13:13:57;1.63;;;0.80;;
2748;SDS011;1382;52.142;11.618;2023-03-05T13:16:25;1.30;;;0.77;;
2748;SDS011;1382;52.142;11.618;2023-03-05T13:18:55;1.60;;;0.77;;
2748;SDS011;1382;52.142;11.618;2023-03-05T13:21:24;2.30;;;1.07;;
2748;SDS011;1382;52.142;11.618;2023-03-05T13:23:52;2.77;;;1.43;;
2748;SDS011;1382;52.142;11.618;2023-03-05T13:26:22;2.10;;;0.90;;
2748;SDS011;1382;52.142;11.618;2023-03-05T13:29:01;5.73;;;1.60;;
2748;SDS011;1382;52.142;11.618;2023-03-05T13:31:32;2.37;;;1.03;;
2748;SDS011;1382;52.142;11.618;2023-03-05T13:34:04;5.03;;;1.47;;
2748;SDS011;1382;52.142;11.618;2023-03-05T13:36:35;2.60;;;1.03;;
2748;SDS011;1382;52.142;11.618;2023-03-05T13:39:03;4.47;;;1.77;;
2748;SDS011;1382;52.142;11.618;2023-03-05T13:41:31;3.50;;;1.73;;
2748;SDS011;1382;52.142;11.618;2023-03-05T13:43:58;4.17;;;1.90;;
2748;SDS011;1382;52.142;11.618;2023-03-05T13:46:28;2.80;;;1.90;;
2748;SDS011;1382;52.142;11.618;2023-03-05T13:48:57;5.20;;;1.23;;
2748;SDS011;1382;52.142;11.618;2023-03-05T13:51:43;4.83;;;1.93;;
2748;SDS011;1382;52.142;11.618;2023-03-05T13:54:12;2.27;;;1.43;;
2748;SDS011;1382;52.142;11.618;2023-03-05T13:56:52;4.40;;;1.50;;
2748;SDS011;1382;52.142;11.618;2023-03-05T13:59:21;3.90;;;1.80;;
2748;SDS011;1382;52.142;11.618;2023-03-05T14:01:49;2.03;;;1.50;;
2748;SDS011;1382;52.142;11.618;2023-03-05T14:04:18;3.20;;;1.57;;
2748;SDS011;1382;52.142;11.618;2023-03-05T14:06:47;4.80;;;1.60;;
2748;SDS011;1382;52.142;11.618;2023-03-05T14:09:18;5.70;;;2.20;;
2748;SDS011;1382;52.142;11.618;2023-03-05T14:14:46;6.87;;;1.97;;
2748;SDS011;1382;52.142;11.618;2023-03-05T14:17:20;3.60;;;1.83;;
2748;SDS011;1382;52.142;11.618;2023-03-05T14:19:48;1.73;;;1.00;;
2748;SDS011;1382;52.142;11.618;2023-03-05T14:22:27;1.47;;;1.30;;
2748;SDS011;1382;52.142;11.618;2023-03-05T14:24:56;5.87;;;1.57;;
2748;SDS011;1382;52.142;11.618;2023-03-05T14:27:24;2.30;;;2.00;;
2748;SDS011;1382;52.142;11.618;2023-03-05T14:30:00;4.50;;;1.60;;
2748;SDS011;1382;52.142;11.618;2023-03-05T14:32:28;3.80;;;1.90;;
2748;SDS011;1382;52.142;11.618;2023-03-05T14:34:58;5.00;;;1.90;;
2748;SDS011;1382;52.142;11.618;2023-03-05T14:37:28;2.30;;;1.67;;
2748;SDS011;1382;52.142;11.618;2023-03-05T14:39:57;2.43;;;1.80;;
2748;SDS011;1382;52.142;11.618;2023-03-05T14:42:28;2.10;;;1.70;;
2748;SDS011;1382;52.142;11.618;2023-03-05T14:44:57;2.87;;;1.87;;
2748;SDS011;1382;52.142;11.618;2023-03-05T14:47:25;4.97;;;2.93;;
2748;SDS011;1382;52.142;11.618;2023-03-05T14:49:53;2.20;;;1.90;;
2748;SDS011;1382;52.142;11.618;2023-03-05T14:52:21;2.90;;;1.40;;
2748;SDS011;1382;52.142;11.618;2023-03-05T14:54:49;3.00;;;1.50;;
2748;SDS011;1382;52.142;11.618;2023-03-05T14:57:18;3.63;;;1.77;;
2748;SDS011;1382;52.142;11.618;2023-03-05T14:59:48;1.77;;;1.20;;
2748;SDS011;1382;52.142;11.618;2023-03-05T15:02:15;2.97;;;1.80;;
2748;SDS011;1382;52.142;11.618;2023-03-05T15:04:42;2.60;;;1.20;;
2748;SDS011;1382;52.142;11.618;2023-03-05T15:07:12;2.00;;;1.67;;
2748;SDS011;1382;52.142;11.618;2023-03-05T15:09:43;1.90;;;1.57;;
2748;SDS011;1382;52.142;11.618;2023-03-05T15:12:10;2.00;;;1.70;;
2748;SDS011;1382;52.142;11.618;2023-03-05T15:14:38;2.20;;;1.73;;
2748;SDS011;1382;52.142;11.618;2023-03-05T15:17:07;3.27;;;2.20;;
2748;SDS011;1382;52.142;11.618;2023-03-05T15:19:38;2.80;;;2.30;;
2748;SDS011;1382;52.142;11.618;2023-03-05T15:22:05;3.53;;;2.03;;
2748;SDS011;1382;52.142;11.618;2023-03-05T15:24:32;4.10;;;1.93;;